sensor_id;sensor_type;location;lat;lon;timestamp;P1;durP1;ratioP1;P2;durP2;ratioP2
38581;SDS011;24349;53.720;10.014;2023-07-02T00:01:45;7.53;;;2.80;;
38581;SDS011;24349;53.720;10.014;2023-07-02T00:04:12;8.02;;;2.67;;
38581;SDS011;24349;53.720;10.014;2023-07-02T00:06:41;8.02;;;2.70;;
38581;SDS011;24349;53.720;10.014;2023-07-02T00:09:07;6.82;;;2.70;;
38581;SDS011;24349;53.720;10.014;2023-07-02T00:11:35;7.40;;;2.90;;
38581;SDS011;24349;53.720;10.014;2023-07-02T00:14:01;7.32;;;2.60;;
38581;SDS011;24349;53.720;10.014;2023-07-02T00:16:27;9.52;;;2.92;;
38581;SDS011;24349;53.720;10.014;2023-07-02T00:18:53;7.22;;;2.60;;
38581;SDS011;24349;53.720;10.014;2023-07-02T00:21:18;7.13;;;2.83;;
38581;SDS011;24349;53.720;10.014;2023-07-02T00:23:45;9.60;;;3.35;;
38581;SDS011;24349;53.720;10.014;2023-07-02T00:26:12;9.23;;;3.42;;
38581;SDS011;24349;53.720;10.014;2023-07-02T00:28:38;7.40;;;3.03;;
38581;SDS011;24349;53.720;10.014;2023-07-02T00:31:03;8.73;;;3.47;;
38581;SDS011;24349;53.720;10.014;2023-07-02T00:33:29;8.23;;;3.15;;
38581;SDS011;24349;53.720;10.014;2023-07-02T00:35:56;8.02;;;3.05;;
38581;SDS011;24349;53.720;10.014;2023-07-02T00:38:22;8.15;;;3.35;;
38581;SDS011;24349;53.720;10.014;2023-07-02T00:40:48;8.98;;;3.53;;
38581;SDS011;24349;53.720;10.014;2023-07-02T00:43:13;7.65;;;2.95;;
38581;SDS011;24349;53.720;10.014;2023-07-02T00:45:39;6.32;;;3.00;;
38581;SDS011;24349;53.720;10.014;2023-07-02T00:48:05;8.80;;;3.13;;
38581;SDS011;24349;53.720;10.014;2023-07-02T00:50:31;9.32;;;3.25;;
38581;SDS011;24349;53.720;10.014;2023-07-02T00:52:57;8.02;;;3.20;;
38581;SDS011;24349;53.720;10.014;2023-07-02T00:55:23;6.40;;;3.15;;
38581;SDS011;24349;53.720;10.014;2023-07-02T00:57:49;10.13;;;3.25;;
38581;SDS011;24349;53.720;10.014;2023-07-02T01:00:15;9.02;;;3.38;;
38581;SDS011;24349;53.720;10.014;2023-07-02T01:02:41;10.88;;;3.95;;
38581;SDS011;24349;53.720;10.014;2023-07-02T01:05:14;9.00;;;3.30;;
38581;SDS011;24349;53.720;10.014;2023-07-02T01:07:40;6.53;;;3.00;;
38581;SDS011;24349;53.720;10.014;2023-07-02T01:10:06;7.88;;;2.92;;
38581;SDS011;24349;53.720;10.014;2023-07-02T01:12:33;10.00;;;3.83;;
38581;SDS011;24349;53.720;10.014;2023-07-02T01:15:00;10.57;;;3.33;;
38581;SDS011;24349;53.720;10.014;2023-07-02T01:17:30;9.18;;;3.55;;
38581;SDS011;24349;53.720;10.014;2023-07-02T01:20:05;10.55;;;3.50;;
38581;SDS011;24349;53.720;10.014;2023-07-02T01:22:33;10.38;;;3.58;;
38581;SDS011;24349;53.720;10.014;2023-07-02T01:24:59;8.63;;;3.20;;
38581;SDS011;24349;53.720;10.014;2023-07-02T01:27:27;6.93;;;3.13;;
38581;SDS011;24349;53.720;10.014;2023-07-02T01:29:54;8.40;;;3.17;;
38581;SDS011;24349;53.720;10.014;2023-07-02T01:32:20;9.40;;;3.95;;
38581;SDS011;24349;53.720;10.014;2023-07-02T01:34:46;8.38;;;3.40;;
38581;SDS011;24349;53.720;10.014;2023-07-02T01:37:14;7.65;;;3.55;;
38581;SDS011;24349;53.720;10.014;2023-07-02T01:39:40;8.27;;;3.47;;
38581;SDS011;24349;53.720;10.014;2023-07-02T01:42:15;8.82;;;3.65;;
38581;SDS011;24349;53.720;10.014;2023-07-02T01:44:43;9.95;;;3.80;;
38581;SDS011;24349;53.720;10.014;2023-07-02T01:47:09;12.25;;;4.10;;
38581;SDS011;24349;53.720;10.014;2023-07-02T01:49:35;7.53;;;3.47;;
38581;SDS011;24349;53.720;10.014;2023-07-02T01:52:04;8.65;;;4.60;;
38581;SDS011;24349;53.720;10.014;2023-07-02T01:54:30;8.43;;;4.45;;
38581;SDS011;24349;53.720;10.014;2023-07-02T01:56:58;9.23;;;3.70;;
38581;SDS011;24349;53.720;10.014;2023-07-02T01:59:24;11.88;;;4.10;;
38581;SDS011;24349;53.720;10.014;2023-07-02T02:01:50;7.97;;;3.58;;
38581;SDS011;24349;53.720;10.014;2023-07-02T02:04:16;9.63;;;4.82;;
38581;SDS011;24349;53.720;10.014;2023-07-02T02:06:42;7.75;;;3.67;;
38581;SDS011;24349;53.720;10.014;2023-07-02T02:09:08;9.65;;;3.80;;
38581;SDS011;24349;53.720;10.014;2023-07-02T02:11:37;7.65;;;3.92;;
38581;SDS011;24349;53.720;10.014;2023-07-02T02:14:04;8.88;;;4.28;;
38581;SDS011;24349;53.720;10.014;2023-07-02T02:16:30;10.55;;;4.30;;
38581;SDS011;24349;53.720;10.014;2023-07-02T02:18:56;10.30;;;3.65;;
38581;SDS011;24349;53.720;10.014;2023-07-02T02:21:21;10.20;;;4.18;;
38581;SDS011;24349;53.720;10.014;2023-07-02T02:23:47;10.15;;;4.03;;
38581;SDS011;24349;53.720;10.014;2023-07-02T02:26:14;9.95;;;5.00;;
38581;SDS011;24349;53.720;10.014;2023-07-02T02:28:41;11.63;;;4.20;;
38581;SDS011;24349;53.720;10.014;2023-07-02T02:31:07;7.97;;;4.20;;
38581;SDS011;24349;53.720;10.014;2023-07-02T02:33:32;9.85;;;4.15;;
38581;SDS011;24349;53.720;10.014;2023-07-02T02:36:00;8.43;;;3.88;;
38581;SDS011;24349;53.720;10.014;2023-07-02T02:38:26;13.35;;;5.28;;
38581;SDS011;24349;53.720;10.014;2023-07-02T02:40:52;8.82;;;4.00;;
38581;SDS011;24349;53.720;10.014;2023-07-02T02:43:17;11.20;;;4.65;;
38581;SDS011;24349;53.720;10.014;2023-07-02T02:45:43;7.32;;;3.83;;
38581;SDS011;24349;53.720;10.014;2023-07-02T02:48:09;9.50;;;4.05;;
38581;SDS011;24349;53.720;10.014;2023-07-02T02:50:35;9.95;;;4.60;;
38581;SDS011;24349;53.720;10.014;2023-07-02T02:53:01;11.52;;;4.13;;
38581;SDS011;24349;53.720;10.014;2023-07-02T02:55:27;9.95;;;4.55;;
38581;SDS011;24349;53.720;10.014;2023-07-02T02:57:53;9.18;;;4.28;;
38581;SDS011;24349;53.720;10.014;2023-07-02T03:00:18;12.15;;;4.80;;
38581;SDS011;24349;53.720;10.014;2023-07-02T03:02:44;8.93;;;4.22;;
38581;SDS011;24349;53.720;10.014;2023-07-02T03:05:09;9.30;;;4.57;;
38581;SDS011;24349;53.720;10.014;2023-07-02T03:07:36;10.23;;;4.63;;
38581;SDS011;24349;53.720;10.014;2023-07-02T03:10:01;8.15;;;4.28;;
38581;SDS011;24349;53.720;10.014;2023-07-02T03:12:27;12.85;;;4.45;;
38581;SDS011;24349;53.720;10.014;2023-07-02T03:14:52;9.82;;;4.82;;
38581;SDS011;24349;53.720;10.014;2023-07-02T03:17:20;8.60;;;4.13;;
38581;SDS011;24349;53.720;10.014;2023-07-02T03:19:46;7.85;;;4.28;;
38581;SDS011;24349;53.720;10.014;2023-07-02T03:22:12;10.25;;;4.10;;
38581;SDS011;24349;53.720;10.014;2023-07-02T03:24:38;9.25;;;5.40;;
38581;SDS011;24349;53.720;10.014;2023-07-02T03:27:04;10.25;;;4.57;;
38581;SDS011;24349;53.720;10.014;2023-07-02T03:29:30;8.77;;;4.85;;
38581;SDS011;24349;53.720;10.014;2023-07-02T03:31:56;8.00;;;4.28;;
38581;SDS011;24349;53.720;10.014;2023-07-02T03:34:22;9.70;;;4.18;;
38581;SDS011;24349;53.720;10.014;2023-07-02T03:36:49;8.55;;;4.20;;
38581;SDS011;24349;53.720;10.014;2023-07-02T03:39:15;8.65;;;4.28;;
38581;SDS011;24349;53.720;10.014;2023-07-02T03:41:41;8.48;;;4.22;;
38581;SDS011;24349;53.720;10.014;2023-07-02T03:44:07;9.82;;;4.45;;
38581;SDS011;24349;53.720;10.014;2023-07-02T03:46:33;10.57;;;4.20;;
38581;SDS011;24349;53.720;10.014;2023-07-02T03:48:59;10.90;;;5.18;;
38581;SDS011;24349;53.720;10.014;2023-07-02T03:51:24;11.40;;;5.60;;
38581;SDS011;24349;53.720;10.014;2023-07-02T03:53:50;10.77;;;5.10;;
38581;SDS011;24349;53.720;10.014;2023-07-02T03:56:15;9.55;;;4.55;;
38581;SDS011;24349;53.720;10.014;2023-07-02T03:58:41;13.70;;;4.57;;
38581;SDS011;24349;53.720;10.014;2023-07-02T04:01:07;13.07;;;4.85;;
38581;SDS011;24349;53.720;10.014;2023-07-02T04:03:33;10.43;;;4.93;;
38581;SDS011;24349;53.720;10.014;2023-07-02T04:05:59;11.30;;;5.05;;
38581;SDS011;24349;53.720;10.014;2023-07-02T04:08:24;10.27;;;4.97;;
38581;SDS011;24349;53.720;10.014;2023-07-02T04:10:50;15.13;;;5.50;;
38581;SDS011;24349;53.720;10.014;2023-07-02T04:13:16;11.02;;;5.32;;
38581;SDS011;24349;53.720;10.014;2023-07-02T04:15:41;15.15;;;5.38;;
38581;SDS011;24349;53.720;10.014;2023-07-02T04:18:07;11.48;;;5.05;;
38581;SDS011;24349;53.720;10.014;2023-07-02T04:20:33;13.20;;;5.40;;
38581;SDS011;24349;53.720;10.014;2023-07-02T04:22:58;14.25;;;5.28;;
38581;SDS011;24349;53.720;10.014;2023-07-02T04:25:24;13.73;;;4.97;;
38581;SDS011;24349;53.720;10.014;2023-07-02T04:27:50;12.38;;;5.35;;
38581;SDS011;24349;53.720;10.014;2023-07-02T04:30:21;12.10;;;5.20;;
38581;SDS011;24349;53.720;10.014;2023-07-02T04:32:47;12.13;;;5.40;;
38581;SDS011;24349;53.720;10.014;2023-07-02T04:35:12;14.80;;;5.50;;
38581;SDS011;24349;53.720;10.014;2023-07-02T04:37:38;19.23;;;5.97;;
38581;SDS011;24349;53.720;10.014;2023-07-02T04:40:04;15.65;;;6.32;;
38581;SDS011;24349;53.720;10.014;2023-07-02T04:45:05;15.38;;;6.30;;
38581;SDS011;24349;53.720;10.014;2023-07-02T04:47:33;19.15;;;5.60;;
38581;SDS011;24349;53.720;10.014;2023-07-02T04:49:59;13.90;;;5.72;;
38581;SDS011;24349;53.720;10.014;2023-07-02T04:52:25;17.85;;;6.50;;
38581;SDS011;24349;53.720;10.014;2023-07-02T04:54:51;14.98;;;5.82;;
38581;SDS011;24349;53.720;10.014;2023-07-02T04:57:16;17.25;;;5.88;;
38581;SDS011;24349;53.720;10.014;2023-07-02T04:59:42;18.60;;;6.50;;
38581;SDS011;24349;53.720;10.014;2023-07-02T05:02:08;15.07;;;6.10;;
38581;SDS011;24349;53.720;10.014;2023-07-02T05:04:35;19.52;;;6.68;;
38581;SDS011;24349;53.720;10.014;2023-07-02T05:07:02;16.92;;;6.35;;
38581;SDS011;24349;53.720;10.014;2023-07-02T05:09:28;16.33;;;6.40;;
38581;SDS011;24349;53.720;10.014;2023-07-02T05:11:54;21.20;;;6.40;;
38581;SDS011;24349;53.720;10.014;2023-07-02T05:14:19;18.95;;;6.88;;
38581;SDS011;24349;53.720;10.014;2023-07-02T05:16:45;14.35;;;6.45;;
38581;SDS011;24349;53.720;10.014;2023-07-02T05:19:10;18.60;;;6.80;;
38581;SDS011;24349;53.720;10.014;2023-07-02T05:21:36;18.88;;;7.07;;
38581;SDS011;24349;53.720;10.014;2023-07-02T05:24:01;15.65;;;7.20;;
38581;SDS011;24349;53.720;10.014;2023-07-02T05:26:27;19.38;;;7.43;;
38581;SDS011;24349;53.720;10.014;2023-07-02T05:28:53;17.25;;;7.15;;
38581;SDS011;24349;53.720;10.014;2023-07-02T05:31:19;16.08;;;6.60;;
38581;SDS011;24349;53.720;10.014;2023-07-02T05:33:44;22.02;;;8.18;;
38581;SDS011;24349;53.720;10.014;2023-07-02T05:36:10;16.63;;;6.75;;
38581;SDS011;24349;53.720;10.014;2023-07-02T05:38:36;17.17;;;7.22;;
38581;SDS011;24349;53.720;10.014;2023-07-02T05:41:02;18.67;;;7.82;;
38581;SDS011;24349;53.720;10.014;2023-07-02T05:43:28;18.65;;;6.97;;
38581;SDS011;24349;53.720;10.014;2023-07-02T05:45:54;19.80;;;6.97;;
38581;SDS011;24349;53.720;10.014;2023-07-02T05:48:20;14.93;;;6.38;;
38581;SDS011;24349;53.720;10.014;2023-07-02T05:50:45;19.00;;;6.75;;
38581;SDS011;24349;53.720;10.014;2023-07-02T05:53:11;16.52;;;6.75;;
38581;SDS011;24349;53.720;10.014;2023-07-02T05:55:37;14.00;;;5.57;;
38581;SDS011;24349;53.720;10.014;2023-07-02T05:58:02;16.48;;;6.47;;
38581;SDS011;24349;53.720;10.014;2023-07-02T06:00:29;17.85;;;6.78;;
38581;SDS011;24349;53.720;10.014;2023-07-02T06:02:54;25.85;;;8.32;;
38581;SDS011;24349;53.720;10.014;2023-07-02T06:05:20;19.85;;;7.07;;
38581;SDS011;24349;53.720;10.014;2023-07-02T06:07:46;18.60;;;7.13;;
38581;SDS011;24349;53.720;10.014;2023-07-02T06:10:11;18.63;;;7.15;;
38581;SDS011;24349;53.720;10.014;2023-07-02T06:12:37;22.45;;;7.57;;
38581;SDS011;24349;53.720;10.014;2023-07-02T06:15:03;16.42;;;7.03;;
38581;SDS011;24349;53.720;10.014;2023-07-02T06:17:29;18.40;;;6.55;;
38581;SDS011;24349;53.720;10.014;2023-07-02T06:19:56;16.33;;;7.70;;
38581;SDS011;24349;53.720;10.014;2023-07-02T06:22:22;18.55;;;6.97;;
38581;SDS011;24349;53.720;10.014;2023-07-02T06:24:48;17.33;;;7.00;;
38581;SDS011;24349;53.720;10.014;2023-07-02T06:27:14;18.73;;;7.10;;
38581;SDS011;24349;53.720;10.014;2023-07-02T06:29:39;16.45;;;6.63;;
38581;SDS011;24349;53.720;10.014;2023-07-02T06:32:05;20.35;;;7.13;;
38581;SDS011;24349;53.720;10.014;2023-07-02T06:34:31;23.25;;;7.32;;
38581;SDS011;24349;53.720;10.014;2023-07-02T06:36:56;20.02;;;7.38;;
38581;SDS011;24349;53.720;10.014;2023-07-02T06:39:22;17.88;;;7.32;;
38581;SDS011;24349;53.720;10.014;2023-07-02T06:41:48;21.88;;;7.88;;
38581;SDS011;24349;53.720;10.014;2023-07-02T06:44:13;19.52;;;7.95;;
38581;SDS011;24349;53.720;10.014;2023-07-02T06:46:39;18.92;;;7.72;;
38581;SDS011;24349;53.720;10.014;2023-07-02T06:49:04;19.25;;;7.38;;
38581;SDS011;24349;53.720;10.014;2023-07-02T06:51:30;19.85;;;7.25;;
38581;SDS011;24349;53.720;10.014;2023-07-02T06:53:56;22.98;;;8.05;;
38581;SDS011;24349;53.720;10.014;2023-07-02T06:56:21;17.67;;;6.60;;
38581;SDS011;24349;53.720;10.014;2023-07-02T06:58:47;19.48;;;7.93;;
38581;SDS011;24349;53.720;10.014;2023-07-02T07:01:12;15.65;;;6.55;;
38581;SDS011;24349;53.720;10.014;2023-07-02T07:03:38;19.27;;;7.07;;
38581;SDS011;24349;53.720;10.014;2023-07-02T07:06:04;18.23;;;7.32;;
38581;SDS011;24349;53.720;10.014;2023-07-02T07:08:29;16.55;;;6.90;;
38581;SDS011;24349;53.720;10.014;2023-07-02T07:10:55;17.00;;;6.63;;
38581;SDS011;24349;53.720;10.014;2023-07-02T07:13:20;19.02;;;7.18;;
38581;SDS011;24349;53.720;10.014;2023-07-02T07:15:46;16.65;;;6.70;;
38581;SDS011;24349;53.720;10.014;2023-07-02T07:18:12;19.00;;;6.75;;
38581;SDS011;24349;53.720;10.014;2023-07-02T07:20:38;17.63;;;6.78;;
38581;SDS011;24349;53.720;10.014;2023-07-02T07:23:05;23.02;;;8.30;;
38581;SDS011;24349;53.720;10.014;2023-07-02T07:25:31;19.70;;;6.97;;
38581;SDS011;24349;53.720;10.014;2023-07-02T07:27:57;20.40;;;6.78;;
38581;SDS011;24349;53.720;10.014;2023-07-02T07:30:24;19.60;;;7.47;;
38581;SDS011;24349;53.720;10.014;2023-07-02T07:32:50;21.52;;;8.20;;
38581;SDS011;24349;53.720;10.014;2023-07-02T07:35:17;16.90;;;7.75;;
38581;SDS011;24349;53.720;10.014;2023-07-02T07:37:43;21.05;;;8.65;;
38581;SDS011;24349;53.720;10.014;2023-07-02T07:40:09;20.77;;;7.90;;
38581;SDS011;24349;53.720;10.014;2023-07-02T07:42:36;22.38;;;8.30;;
38581;SDS011;24349;53.720;10.014;2023-07-02T07:45:02;18.05;;;7.10;;
38581;SDS011;24349;53.720;10.014;2023-07-02T07:47:28;20.25;;;7.75;;
38581;SDS011;24349;53.720;10.014;2023-07-02T07:49:54;20.98;;;8.43;;
38581;SDS011;24349;53.720;10.014;2023-07-02T07:52:20;21.02;;;8.18;;
38581;SDS011;24349;53.720;10.014;2023-07-02T07:54:46;16.13;;;6.93;;
38581;SDS011;24349;53.720;10.014;2023-07-02T07:57:11;17.70;;;7.10;;
38581;SDS011;24349;53.720;10.014;2023-07-02T07:59:37;16.77;;;7.38;;
38581;SDS011;24349;53.720;10.014;2023-07-02T08:02:03;13.77;;;7.10;;
38581;SDS011;24349;53.720;10.014;2023-07-02T08:04:29;19.52;;;7.82;;
38581;SDS011;24349;53.720;10.014;2023-07-02T08:06:54;17.55;;;7.88;;
38581;SDS011;24349;53.720;10.014;2023-07-02T08:09:21;17.27;;;7.57;;
38581;SDS011;24349;53.720;10.014;2023-07-02T08:11:48;16.17;;;7.05;;
38581;SDS011;24349;53.720;10.014;2023-07-02T08:14:14;14.98;;;7.07;;
38581;SDS011;24349;53.720;10.014;2023-07-02T08:16:41;16.60;;;7.40;;
38581;SDS011;24349;53.720;10.014;2023-07-02T08:19:06;17.30;;;7.38;;
38581;SDS011;24349;53.720;10.014;2023-07-02T08:21:32;18.48;;;7.22;;
38581;SDS011;24349;53.720;10.014;2023-07-02T08:23:57;22.52;;;7.93;;
38581;SDS011;24349;53.720;10.014;2023-07-02T08:26:23;17.20;;;7.50;;
38581;SDS011;24349;53.720;10.014;2023-07-02T08:28:49;19.05;;;7.30;;
38581;SDS011;24349;53.720;10.014;2023-07-02T08:31:14;16.95;;;7.10;;
38581;SDS011;24349;53.720;10.014;2023-07-02T08:33:41;17.52;;;7.47;;
38581;SDS011;24349;53.720;10.014;2023-07-02T08:36:06;21.35;;;8.52;;
38581;SDS011;24349;53.720;10.014;2023-07-02T08:38:32;18.25;;;8.15;;
38581;SDS011;24349;53.720;10.014;2023-07-02T08:40:57;17.38;;;6.85;;
38581;SDS011;24349;53.720;10.014;2023-07-02T08:43:23;19.98;;;7.55;;
38581;SDS011;24349;53.720;10.014;2023-07-02T08:45:51;16.48;;;6.85;;
38581;SDS011;24349;53.720;10.014;2023-07-02T08:48:17;14.95;;;7.25;;
38581;SDS011;24349;53.720;10.014;2023-07-02T08:50:47;17.02;;;7.18;;
38581;SDS011;24349;53.720;10.014;2023-07-02T08:53:14;20.05;;;8.05;;
38581;SDS011;24349;53.720;10.014;2023-07-02T08:55:39;16.73;;;6.35;;
38581;SDS011;24349;53.720;10.014;2023-07-02T08:58:05;19.55;;;7.15;;
38581;SDS011;24349;53.720;10.014;2023-07-02T09:00:31;20.42;;;7.68;;
38581;SDS011;24349;53.720;10.014;2023-07-02T09:03:14;15.77;;;7.38;;
38581;SDS011;24349;53.720;10.014;2023-07-02T09:05:47;17.45;;;7.35;;
38581;SDS011;24349;53.720;10.014;2023-07-02T09:08:25;16.55;;;6.65;;
38581;SDS011;24349;53.720;10.014;2023-07-02T09:10:52;16.27;;;6.95;;
38581;SDS011;24349;53.720;10.014;2023-07-02T09:13:18;13.73;;;6.63;;
38581;SDS011;24349;53.720;10.014;2023-07-02T09:15:44;14.02;;;5.80;;
38581;SDS011;24349;53.720;10.014;2023-07-02T09:18:19;13.90;;;6.03;;
38581;SDS011;24349;53.720;10.014;2023-07-02T09:20:49;16.35;;;6.80;;
38581;SDS011;24349;53.720;10.014;2023-07-02T09:23:16;12.55;;;5.32;;
38581;SDS011;24349;53.720;10.014;2023-07-02T09:25:42;12.95;;;5.50;;
38581;SDS011;24349;53.720;10.014;2023-07-02T09:28:18;11.60;;;5.07;;
38581;SDS011;24349;53.720;10.014;2023-07-02T09:33:24;12.48;;;5.68;;
38581;SDS011;24349;53.720;10.014;2023-07-02T09:35:50;14.27;;;4.80;;
38581;SDS011;24349;53.720;10.014;2023-07-02T09:38:17;11.63;;;4.75;;
38581;SDS011;24349;53.720;10.014;2023-07-02T09:40:45;13.90;;;5.43;;
38581;SDS011;24349;53.720;10.014;2023-07-02T09:43:12;14.27;;;5.35;;
38581;SDS011;24349;53.720;10.014;2023-07-02T09:45:43;11.20;;;5.05;;
38581;SDS011;24349;53.720;10.014;2023-07-02T09:48:12;14.18;;;5.00;;
38581;SDS011;24349;53.720;10.014;2023-07-02T09:50:40;12.20;;;5.07;;
38581;SDS011;24349;53.720;10.014;2023-07-02T09:53:07;13.95;;;4.85;;
38581;SDS011;24349;53.720;10.014;2023-07-02T09:55:32;14.75;;;5.20;;
38581;SDS011;24349;53.720;10.014;2023-07-02T09:57:58;11.57;;;5.30;;
38581;SDS011;24349;53.720;10.014;2023-07-02T10:00:24;11.63;;;5.18;;
38581;SDS011;24349;53.720;10.014;2023-07-02T10:02:50;11.73;;;4.88;;
38581;SDS011;24349;53.720;10.014;2023-07-02T10:05:25;13.38;;;5.20;;
38581;SDS011;24349;53.720;10.014;2023-07-02T10:07:52;13.43;;;4.88;;
38581;SDS011;24349;53.720;10.014;2023-07-02T10:10:28;15.50;;;5.13;;
38581;SDS011;24349;53.720;10.014;2023-07-02T10:12:55;13.52;;;4.80;;
38581;SDS011;24349;53.720;10.014;2023-07-02T10:15:25;11.50;;;4.18;;
38581;SDS011;24349;53.720;10.014;2023-07-02T10:17:55;9.77;;;4.20;;
38581;SDS011;24349;53.720;10.014;2023-07-02T10:20:30;8.38;;;3.45;;
38581;SDS011;24349;53.720;10.014;2023-07-02T10:22:58;10.75;;;3.85;;
38581;SDS011;24349;53.720;10.014;2023-07-02T10:25:27;10.40;;;3.88;;
38581;SDS011;24349;53.720;10.014;2023-07-02T10:28:02;9.65;;;3.67;;
38581;SDS011;24349;53.720;10.014;2023-07-02T10:30:39;8.75;;;3.20;;
38581;SDS011;24349;53.720;10.014;2023-07-02T10:35:38;9.57;;;3.78;;
38581;SDS011;24349;53.720;10.014;2023-07-02T10:38:06;7.70;;;3.30;;
38581;SDS011;24349;53.720;10.014;2023-07-02T10:40:32;8.38;;;3.08;;
38581;SDS011;24349;53.720;10.014;2023-07-02T10:43:00;12.75;;;2.95;;
38581;SDS011;24349;53.720;10.014;2023-07-02T10:45:33;8.98;;;2.97;;
38581;SDS011;24349;53.720;10.014;2023-07-02T10:48:03;8.20;;;3.30;;
38581;SDS011;24349;53.720;10.014;2023-07-02T10:50:33;8.55;;;3.28;;
38581;SDS011;24349;53.720;10.014;2023-07-02T10:52:59;9.15;;;3.45;;
38581;SDS011;24349;53.720;10.014;2023-07-02T10:55:25;9.38;;;3.35;;
38581;SDS011;24349;53.720;10.014;2023-07-02T10:58:02;7.40;;;3.47;;
38581;SDS011;24349;53.720;10.014;2023-07-02T11:00:32;9.00;;;2.97;;
38581;SDS011;24349;53.720;10.014;2023-07-02T11:02:58;10.05;;;3.67;;
38581;SDS011;24349;53.720;10.014;2023-07-02T11:05:24;8.25;;;3.47;;
38581;SDS011;24349;53.720;10.014;2023-07-02T11:07:50;10.40;;;3.67;;
38581;SDS011;24349;53.720;10.014;2023-07-02T11:10:22;9.20;;;2.73;;
38581;SDS011;24349;53.720;10.014;2023-07-02T11:12:48;8.50;;;2.88;;
38581;SDS011;24349;53.720;10.014;2023-07-02T11:15:14;9.40;;;3.58;;
38581;SDS011;24349;53.720;10.014;2023-07-02T11:17:42;8.80;;;3.35;;
38581;SDS011;24349;53.720;10.014;2023-07-02T11:20:09;10.00;;;3.25;;
38581;SDS011;24349;53.720;10.014;2023-07-02T11:22:37;9.35;;;3.10;;
38581;SDS011;24349;53.720;10.014;2023-07-02T11:27:41;13.05;;;3.33;;
38581;SDS011;24349;53.720;10.014;2023-07-02T11:30:06;9.73;;;2.88;;
38581;SDS011;24349;53.720;10.014;2023-07-02T11:32:52;11.63;;;3.10;;
38581;SDS011;24349;53.720;10.014;2023-07-02T11:35:18;10.90;;;3.83;;
38581;SDS011;24349;53.720;10.014;2023-07-02T11:37:45;8.52;;;3.17;;
38581;SDS011;24349;53.720;10.014;2023-07-02T11:40:11;7.45;;;2.65;;
38581;SDS011;24349;53.720;10.014;2023-07-02T11:42:38;9.38;;;2.80;;
38581;SDS011;24349;53.720;10.014;2023-07-02T11:45:04;9.50;;;2.90;;
38581;SDS011;24349;53.720;10.014;2023-07-02T11:47:30;12.32;;;3.08;;
38581;SDS011;24349;53.720;10.014;2023-07-02T11:49:55;9.10;;;3.40;;
38581;SDS011;24349;53.720;10.014;2023-07-02T11:52:21;9.23;;;3.15;;
38581;SDS011;24349;53.720;10.014;2023-07-02T11:54:47;11.32;;;3.72;;
38581;SDS011;24349;53.720;10.014;2023-07-02T11:57:13;12.27;;;3.15;;
38581;SDS011;24349;53.720;10.014;2023-07-02T11:59:39;7.45;;;2.85;;
38581;SDS011;24349;53.720;10.014;2023-07-02T12:02:05;8.38;;;2.92;;
38581;SDS011;24349;53.720;10.014;2023-07-02T12:04:31;9.93;;;3.08;;
38581;SDS011;24349;53.720;10.014;2023-07-02T12:06:56;6.78;;;2.88;;
38581;SDS011;24349;53.720;10.014;2023-07-02T12:09:22;9.68;;;2.88;;
38581;SDS011;24349;53.720;10.014;2023-07-02T12:11:48;12.88;;;3.30;;
38581;SDS011;24349;53.720;10.014;2023-07-02T12:14:13;8.20;;;3.00;;
38581;SDS011;24349;53.720;10.014;2023-07-02T12:16:39;9.68;;;3.40;;
38581;SDS011;24349;53.720;10.014;2023-07-02T12:19:04;9.95;;;3.25;;
38581;SDS011;24349;53.720;10.014;2023-07-02T12:21:30;11.40;;;3.60;;
38581;SDS011;24349;53.720;10.014;2023-07-02T12:23:57;10.07;;;3.00;;
38581;SDS011;24349;53.720;10.014;2023-07-02T12:26:22;9.07;;;3.45;;
38581;SDS011;24349;53.720;10.014;2023-07-02T12:28:48;10.05;;;3.05;;
38581;SDS011;24349;53.720;10.014;2023-07-02T12:31:13;9.20;;;3.28;;
38581;SDS011;24349;53.720;10.014;2023-07-02T12:33:39;8.82;;;3.33;;
38581;SDS011;24349;53.720;10.014;2023-07-02T12:36:05;9.40;;;3.08;;
38581;SDS011;24349;53.720;10.014;2023-07-02T12:38:30;9.25;;;3.03;;
38581;SDS011;24349;53.720;10.014;2023-07-02T12:40:56;10.18;;;3.70;;
38581;SDS011;24349;53.720;10.014;2023-07-02T12:43:22;8.77;;;2.85;;
38581;SDS011;24349;53.720;10.014;2023-07-02T12:45:47;9.55;;;2.88;;
38581;SDS011;24349;53.720;10.014;2023-07-02T12:48:13;12.15;;;3.17;;
38581;SDS011;24349;53.720;10.014;2023-07-02T12:50:39;8.75;;;3.03;;
38581;SDS011;24349;53.720;10.014;2023-07-02T12:53:04;15.48;;;3.42;;
38581;SDS011;24349;53.720;10.014;2023-07-02T12:55:30;7.45;;;2.85;;
38581;SDS011;24349;53.720;10.014;2023-07-02T12:57:56;7.53;;;2.50;;
38581;SDS011;24349;53.720;10.014;2023-07-02T13:00:22;9.88;;;2.83;;
38581;SDS011;24349;53.720;10.014;2023-07-02T13:02:48;9.85;;;2.90;;
38581;SDS011;24349;53.720;10.014;2023-07-02T13:05:14;12.82;;;3.55;;
38581;SDS011;24349;53.720;10.014;2023-07-02T13:07:39;7.82;;;2.53;;
38581;SDS011;24349;53.720;10.014;2023-07-02T13:10:05;9.82;;;2.40;;
38581;SDS011;24349;53.720;10.014;2023-07-02T13:12:31;5.75;;;2.15;;
38581;SDS011;24349;53.720;10.014;2023-07-02T13:14:58;7.05;;;2.22;;
38581;SDS011;24349;53.720;10.014;2023-07-02T13:17:23;7.18;;;1.92;;
38581;SDS011;24349;53.720;10.014;2023-07-02T13:19:49;9.65;;;2.00;;
38581;SDS011;24349;53.720;10.014;2023-07-02T13:22:15;8.27;;;2.10;;
38581;SDS011;24349;53.720;10.014;2023-07-02T13:24:40;6.60;;;2.17;;
38581;SDS011;24349;53.720;10.014;2023-07-02T13:27:13;7.07;;;2.35;;
38581;SDS011;24349;53.720;10.014;2023-07-02T13:29:41;7.25;;;2.40;;
38581;SDS011;24349;53.720;10.014;2023-07-02T13:32:06;9.85;;;2.30;;
38581;SDS011;24349;53.720;10.014;2023-07-02T13:34:32;14.30;;;2.20;;
38581;SDS011;24349;53.720;10.014;2023-07-02T13:36:58;7.93;;;2.47;;
38581;SDS011;24349;53.720;10.014;2023-07-02T13:39:23;7.22;;;2.05;;
38581;SDS011;24349;53.720;10.014;2023-07-02T13:41:50;7.43;;;2.58;;
38581;SDS011;24349;53.720;10.014;2023-07-02T13:44:15;8.23;;;1.70;;
38581;SDS011;24349;53.720;10.014;2023-07-02T13:46:42;7.10;;;2.28;;
38581;SDS011;24349;53.720;10.014;2023-07-02T13:49:09;8.43;;;2.03;;
38581;SDS011;24349;53.720;10.014;2023-07-02T13:51:35;10.27;;;2.38;;
38581;SDS011;24349;53.720;10.014;2023-07-02T13:54:01;9.77;;;2.35;;
38581;SDS011;24349;53.720;10.014;2023-07-02T13:56:27;7.07;;;2.53;;
38581;SDS011;24349;53.720;10.014;2023-07-02T14:01:21;8.95;;;2.25;;
38581;SDS011;24349;53.720;10.014;2023-07-02T14:03:48;6.88;;;2.45;;
38581;SDS011;24349;53.720;10.014;2023-07-02T14:06:13;8.10;;;2.40;;
38581;SDS011;24349;53.720;10.014;2023-07-02T14:08:40;7.95;;;2.58;;
38581;SDS011;24349;53.720;10.014;2023-07-02T14:11:06;8.60;;;2.58;;
38581;SDS011;24349;53.720;10.014;2023-07-02T14:13:31;9.02;;;2.25;;
38581;SDS011;24349;53.720;10.014;2023-07-02T14:15:57;8.13;;;2.60;;
38581;SDS011;24349;53.720;10.014;2023-07-02T14:18:23;8.00;;;2.50;;
38581;SDS011;24349;53.720;10.014;2023-07-02T14:20:49;9.60;;;2.42;;
38581;SDS011;24349;53.720;10.014;2023-07-02T14:23:15;7.05;;;2.40;;
38581;SDS011;24349;53.720;10.014;2023-07-02T14:25:40;11.02;;;2.33;;
38581;SDS011;24349;53.720;10.014;2023-07-02T14:28:06;8.13;;;2.03;;
38581;SDS011;24349;53.720;10.014;2023-07-02T14:30:31;7.43;;;2.15;;
38581;SDS011;24349;53.720;10.014;2023-07-02T14:32:57;7.07;;;2.10;;
38581;SDS011;24349;53.720;10.014;2023-07-02T14:35:22;8.30;;;2.30;;